createdAt,value
2023-01-04T00:00:48.233Z,3.53
2023-01-04T00:01:51.091Z,3.70
2023-01-04T00:02:52.741Z,3.70
2023-01-04T00:03:55.428Z,3.75
2023-01-04T00:04:57.108Z,3.83
2023-01-04T00:06:00.543Z,4.13
2023-01-04T00:07:03.031Z,3.80
2023-01-04T00:08:04.921Z,3.40
2023-01-04T00:09:07.989Z,3.63
2023-01-04T00:10:09.471Z,3.67
2023-01-04T00:11:15.153Z,3.20
2023-01-04T00:12:17.646Z,3.90
2023-01-04T00:13:19.154Z,3.63
2023-01-04T00:14:21.611Z,4.22
2023-01-04T00:15:23.116Z,3.80
2023-01-04T00:16:27.221Z,3.83
2023-01-04T00:17:28.758Z,3.75
2023-01-04T00:18:31.308Z,4.32
2023-01-04T00:19:33.892Z,3.92
2023-01-04T00:20:35.448Z,3.80
2023-01-04T00:21:37.883Z,4.28
2023-01-04T00:22:39.364Z,4.72
2023-01-04T00:23:43.607Z,4.22
2023-01-04T00:24:45.783Z,4.68
2023-01-04T00:25:48.212Z,4.25
2023-01-04T00:26:52.103Z,3.80
2023-01-04T00:27:53.741Z,4.18
2023-01-04T00:28:57.109Z,4.70
2023-01-04T00:29:58.687Z,4.30
2023-01-04T00:31:03.411Z,4.05
2023-01-04T00:32:05.980Z,4.50
2023-01-04T00:33:07.500Z,4.82
2023-01-04T00:34:13.843Z,4.30
2023-01-04T00:35:43.576Z,4.25
2023-01-04T00:36:38.242Z,4.30
2023-01-04T00:37:39.725Z,4.50
2023-01-04T00:38:43.499Z,3.97
2023-01-04T00:39:45.923Z,4.97
2023-01-04T00:40:47.413Z,4.32
2023-01-04T00:42:01.513Z,5.03
2023-01-04T00:43:03.424Z,4.35
2023-01-04T00:44:06.687Z,4.68
2023-01-04T00:45:09.841Z,4.88
2023-01-04T00:46:11.628Z,4.88
2023-01-04T00:47:14.146Z,5.07
2023-01-04T00:48:15.686Z,4.20
2023-01-04T00:49:18.163Z,4.75
2023-01-04T00:50:19.779Z,4.50
2023-01-04T00:51:22.271Z,4.70
2023-01-04T00:52:23.828Z,4.80
2023-01-04T00:53:26.463Z,5.00
2023-01-04T00:54:29.330Z,5.00
2023-01-04T00:55:30.845Z,5.25
2023-01-04T00:56:34.257Z,5.38
2023-01-04T00:57:37.114Z,4.97
2023-01-04T00:58:39.563Z,4.68
2023-01-04T00:59:42.016Z,5.40
2023-01-04T01:00:43.618Z,4.68
2023-01-04T01:01:46.363Z,4.68
2023-01-04T01:02:48.194Z,4.80
2023-01-04T01:03:54.026Z,4.78
2023-01-04T01:04:55.959Z,5.10
2023-01-04T01:06:02.135Z,4.93
2023-01-04T01:07:04.634Z,4.88
2023-01-04T01:08:21.060Z,5.40
2023-01-04T01:09:24.032Z,4.65
2023-01-04T01:10:25.535Z,5.25
2023-01-04T01:11:29.163Z,5.15
2023-01-04T01:12:30.733Z,5.50
2023-01-04T01:13:35.366Z,5.10
2023-01-04T01:14:37.980Z,4.88
2023-01-04T01:15:40.845Z,5.25
2023-01-04T01:16:55.233Z,5.00
2023-01-04T01:17:59.389Z,5.22
2023-01-04T01:19:01.870Z,4.68
2023-01-04T01:20:05.228Z,4.60
2023-01-04T01:21:09.056Z,5.63
2023-01-04T01:22:10.586Z,4.93
2023-01-04T01:23:15.060Z,4.88
2023-01-04T01:24:18.495Z,4.88
2023-01-04T01:25:20.934Z,4.70
2023-01-04T01:26:23.974Z,4.43
2023-01-04T01:27:26.438Z,4.65
2023-01-04T01:28:28.636Z,4.43
2023-01-04T01:29:32.385Z,5.00
2023-01-04T01:30:34.143Z,4.90
2023-01-04T01:31:36.918Z,4.18
2023-01-04T01:32:38.489Z,4.72
2023-01-04T01:33:42.736Z,4.60
2023-01-04T01:34:45.218Z,5.07
2023-01-04T01:35:46.802Z,5.60
2023-01-04T01:36:49.575Z,5.07
2023-01-04T01:37:51.102Z,4.93
2023-01-04T01:38:54.114Z,4.47
2023-01-04T01:39:55.690Z,5.57
2023-01-04T01:40:58.199Z,5.32
2023-01-04T01:41:59.791Z,4.75
2023-01-04T01:43:02.324Z,5.22
2023-01-04T01:44:06.969Z,5.35
2023-01-04T01:45:29.125Z,5.15
2023-01-04T01:46:35.676Z,4.95
2023-01-04T01:47:42.696Z,5.20
2023-01-04T01:48:45.309Z,5.40
2023-01-04T01:49:50.683Z,5.35
2023-01-04T01:50:57.952Z,5.10
2023-01-04T01:52:03.952Z,5.75
2023-01-04T01:53:08.596Z,4.47
2023-01-04T01:54:14.339Z,4.78
2023-01-04T01:55:17.654Z,4.75
2023-01-04T01:56:19.652Z,4.72
2023-01-04T01:57:26.209Z,5.25
2023-01-04T01:58:31.696Z,4.70
2023-01-04T01:59:37.806Z,5.30
2023-01-04T02:00:40.643Z,5.05
2023-01-04T02:01:43.485Z,4.65
2023-01-04T02:02:53.330Z,4.88
2023-01-04T02:03:57.139Z,4.05
2023-01-04T02:05:01.573Z,5.15
2023-01-04T02:06:06.450Z,5.25
2023-01-04T02:07:09.333Z,5.10
2023-01-04T02:08:13.660Z,5.18
2023-01-04T02:09:16.808Z,4.60
2023-01-04T02:10:19.421Z,5.75
2023-01-04T02:11:20.908Z,4.90
2023-01-04T02:12:23.335Z,4.43
2023-01-04T02:13:48.559Z,5.40
2023-01-04T02:14:52.444Z,4.88
2023-01-04T02:16:07.225Z,4.75
2023-01-04T02:17:15.957Z,4.50
2023-01-04T02:18:25.268Z,5.13
2023-01-04T02:20:03.056Z,5.07
2023-01-04T02:21:09.619Z,4.80
2023-01-04T02:22:34.876Z,5.05
2023-01-04T02:24:12.781Z,5.22
2023-01-04T02:25:47.971Z,4.50
2023-01-04T02:27:34.021Z,4.47
2023-01-04T02:28:52.907Z,3.92
2023-01-04T02:30:27.468Z,3.88
2023-01-04T02:31:39.708Z,3.25
2023-01-04T02:32:57.799Z,3.30
2023-01-04T02:34:07.585Z,3.70
2023-01-04T02:35:18.514Z,3.15
2023-01-04T02:37:36.428Z,3.25
2023-01-04T02:38:48.922Z,3.20
2023-01-04T02:40:05.028Z,3.38
2023-01-04T02:41:21.728Z,2.72
2023-01-04T02:42:47.158Z,2.45
2023-01-04T02:44:15.384Z,2.60
2023-01-04T02:45:21.109Z,2.78
2023-01-04T02:46:28.661Z,3.25
2023-01-04T02:47:54.682Z,2.65
2023-01-04T02:49:18.129Z,2.85
2023-01-04T02:50:32.294Z,2.90
2023-01-04T02:51:37.163Z,2.55
2023-01-04T02:52:38.822Z,2.50
2023-01-04T02:53:42.773Z,2.88
2023-01-04T02:54:46.402Z,2.47
2023-01-04T02:55:55.236Z,3.25
2023-01-04T02:57:20.320Z,2.85
2023-01-04T02:58:36.232Z,2.38
2023-01-04T03:00:03.528Z,2.25
2023-01-04T03:01:32.812Z,2.47
2023-01-04T03:03:14.327Z,2.45
2023-01-04T03:04:50.700Z,2.70
2023-01-04T03:06:18.215Z,2.33
2023-01-04T03:07:27.711Z,2.00
2023-01-04T03:08:35.109Z,2.58
2023-01-04T03:09:41.910Z,2.30
2023-01-04T03:10:48.153Z,2.50
2023-01-04T03:12:12.029Z,2.50
2023-01-04T03:13:18.216Z,2.53
2023-01-04T03:14:33.214Z,2.40
2023-01-04T03:15:40.083Z,2.20
2023-01-04T03:16:45.979Z,2.55
2023-01-04T03:17:54.378Z,2.33
2023-01-04T03:18:58.473Z,2.17
2023-01-04T03:20:04.635Z,2.47
2023-01-04T03:21:09.796Z,1.80
2023-01-04T03:22:30.590Z,2.42
2023-01-04T03:23:55.091Z,1.70
2023-01-04T03:25:15.275Z,2.22
2023-01-04T03:26:38.163Z,1.65
2023-01-04T03:28:01.763Z,2.00
2023-01-04T03:29:27.377Z,1.70
2023-01-04T03:30:49.012Z,2.00
2023-01-04T03:32:15.893Z,1.90
2023-01-04T03:33:38.065Z,2.10
2023-01-04T03:34:58.560Z,2.33
2023-01-04T03:36:09.577Z,1.90
2023-01-04T03:37:18.707Z,1.85
2023-01-04T03:38:47.756Z,2.00
2023-01-04T03:40:23.655Z,1.98
2023-01-04T03:41:49.174Z,1.95
2023-01-04T03:43:16.605Z,2.00
2023-01-04T03:44:47.695Z,1.73
2023-01-04T03:46:12.353Z,2.22
2023-01-04T03:47:37.477Z,1.83
2023-01-04T03:48:47.218Z,1.80
2023-01-04T03:49:57.422Z,1.70
2023-01-04T03:51:08.601Z,1.48
2023-01-04T03:52:12.835Z,2.10
2023-01-04T03:53:16.429Z,1.70
2023-01-04T03:54:23.379Z,1.60
2023-01-04T03:55:29.306Z,1.80
2023-01-04T03:56:34.179Z,1.98
2023-01-04T03:57:36.636Z,1.50
2023-01-04T03:58:39.958Z,1.60
2023-01-04T03:59:45.665Z,1.58
2023-01-04T04:00:48.514Z,1.77
2023-01-04T04:01:51.340Z,1.42
2023-01-04T04:02:52.919Z,1.50
2023-01-04T04:04:14.724Z,1.30
2023-01-04T04:05:36.871Z,1.25
2023-01-04T04:06:57.236Z,1.20
2023-01-04T04:08:17.455Z,0.93
2023-01-04T04:09:20.061Z,1.30
2023-01-04T04:10:21.668Z,1.27
2023-01-04T04:11:33.271Z,1.13
2023-01-04T04:12:34.749Z,1.15
2023-01-04T04:13:37.256Z,0.80
2023-01-04T04:14:38.928Z,1.17
2023-01-04T04:15:41.457Z,1.23
2023-01-04T04:16:44.044Z,1.20
2023-01-04T04:17:45.667Z,1.17
2023-01-04T04:18:49.001Z,1.48
2023-01-04T04:19:52.808Z,1.27
2023-01-04T04:20:57.663Z,1.60
2023-01-04T04:22:00.212Z,1.50
2023-01-04T04:23:01.917Z,1.25
2023-01-04T04:24:04.911Z,1.33
2023-01-04T04:25:07.391Z,1.85
2023-01-04T04:26:09.859Z,1.63
2023-01-04T04:27:11.370Z,1.25
2023-01-04T04:28:13.880Z,1.73
2023-01-04T04:29:15.400Z,1.92
2023-01-04T04:30:18.119Z,1.60
2023-01-04T04:31:19.711Z,1.83
2023-01-04T04:32:22.692Z,1.50
2023-01-04T04:33:24.233Z,1.23
2023-01-04T04:34:26.744Z,1.50
2023-01-04T04:35:29.687Z,1.88
2023-01-04T04:36:32.231Z,1.55
2023-01-04T04:37:34.652Z,1.52
2023-01-04T04:38:37.441Z,1.55
2023-01-04T04:39:38.982Z,1.60
2023-01-04T04:40:59.423Z,1.65
2023-01-04T04:42:01.964Z,1.45
2023-01-04T04:43:03.530Z,1.60
2023-01-04T04:44:06.716Z,1.50
2023-01-04T04:45:09.407Z,1.52
2023-01-04T04:46:11.996Z,1.67
2023-01-04T04:47:13.648Z,1.77
2023-01-04T04:48:16.110Z,1.50
2023-01-04T04:49:18.479Z,1.33
2023-01-04T04:50:21.049Z,1.40
2023-01-04T04:51:23.921Z,1.50
2023-01-04T04:52:26.403Z,1.60
2023-01-04T04:53:27.907Z,1.30
2023-01-04T04:54:30.419Z,1.35
2023-01-04T04:55:31.948Z,1.70
2023-01-04T04:56:34.575Z,1.48
2023-01-04T04:57:36.131Z,1.70
2023-01-04T04:58:39.405Z,1.55
2023-01-04T04:59:40.936Z,1.25
2023-01-04T05:00:43.465Z,1.20
2023-01-04T05:01:45.236Z,1.50
2023-01-04T05:02:47.982Z,1.55
2023-01-04T05:03:50.211Z,1.70
2023-01-04T05:04:52.675Z,1.65
2023-01-04T05:05:54.289Z,1.40
2023-01-04T05:06:58.095Z,1.63
2023-01-04T05:07:59.634Z,1.48
2023-01-04T05:09:02.133Z,1.77
2023-01-04T05:10:04.380Z,1.50
2023-01-04T05:11:07.646Z,1.27
2023-01-04T05:12:30.492Z,1.50
2023-01-04T05:13:32.018Z,1.20
2023-01-04T05:14:33.575Z,1.33
2023-01-04T05:15:38.157Z,1.30
2023-01-04T05:16:39.874Z,1.30
2023-01-04T05:17:42.435Z,1.30
2023-01-04T05:18:44.943Z,1.63
2023-01-04T05:19:46.453Z,1.38
2023-01-04T05:20:49.388Z,1.63
2023-01-04T05:21:50.987Z,1.27
2023-01-04T05:22:55.034Z,1.60
2023-01-04T05:23:56.577Z,1.48
2023-01-04T05:24:59.116Z,1.33
2023-01-04T05:26:03.717Z,1.33
2023-01-04T05:27:05.288Z,1.25
2023-01-04T05:28:08.737Z,1.50
2023-01-04T05:29:30.328Z,1.75
2023-01-04T05:30:50.528Z,1.58
2023-01-04T05:31:53.001Z,1.58
2023-01-04T05:32:54.526Z,1.65
2023-01-04T05:33:57.077Z,1.50
2023-01-04T05:34:58.607Z,1.60
2023-01-04T05:36:02.497Z,1.95
2023-01-04T05:37:04.043Z,1.98
2023-01-04T05:38:08.035Z,2.30
2023-01-04T05:39:09.550Z,1.80
2023-01-04T05:40:12.423Z,1.90
2023-01-04T05:41:28.968Z,1.63
2023-01-04T05:42:31.449Z,1.83
2023-01-04T05:43:33.891Z,1.90
2023-01-04T05:44:35.364Z,2.33
2023-01-04T05:45:37.882Z,2.17
2023-01-04T05:46:39.496Z,2.65
2023-01-04T05:47:42.237Z,1.90
2023-01-04T05:48:43.756Z,2.08
2023-01-04T05:49:46.256Z,2.25
2023-01-04T05:50:48.860Z,2.20
2023-01-04T05:51:50.347Z,1.98
2023-01-04T05:52:53.199Z,2.40
2023-01-04T05:53:56.033Z,2.30
2023-01-04T05:54:58.591Z,2.55
2023-01-04T05:56:00.360Z,2.30
2023-01-04T05:57:03.111Z,2.25
2023-01-04T05:58:05.960Z,2.40
2023-01-04T05:59:07.488Z,2.17
2023-01-04T06:00:12.186Z,2.33
2023-01-04T06:01:13.935Z,2.42
2023-01-04T06:02:18.752Z,2.55
2023-01-04T06:03:21.386Z,2.60
2023-01-04T06:04:23.015Z,2.60
2023-01-04T06:05:25.981Z,2.17
2023-01-04T06:06:27.490Z,2.33
2023-01-04T06:07:30.720Z,2.70
2023-01-04T06:08:32.258Z,2.15
2023-01-04T06:09:36.273Z,2.22
2023-01-04T06:10:37.849Z,2.50
2023-01-04T06:11:40.372Z,2.45
2023-01-04T06:12:42.357Z,2.53
2023-01-04T06:13:44.862Z,2.50
2023-01-04T06:14:46.584Z,2.25
2023-01-04T06:15:49.065Z,2.20
2023-01-04T06:16:50.663Z,2.30
2023-01-04T06:17:53.235Z,2.45
2023-01-04T06:18:54.761Z,2.30
2023-01-04T06:19:57.463Z,2.45
2023-01-04T06:20:58.973Z,2.42
2023-01-04T06:22:01.601Z,2.15
2023-01-04T06:23:03.213Z,2.10
2023-01-04T06:24:06.403Z,2.42
2023-01-04T06:25:10.151Z,2.35
2023-01-04T06:26:12.653Z,2.00
2023-01-04T06:27:14.353Z,2.88
2023-01-04T06:28:16.828Z,2.47
2023-01-04T06:29:18.727Z,2.10
2023-01-04T06:30:21.255Z,2.22
2023-01-04T06:31:25.164Z,1.95
2023-01-04T06:32:27.870Z,1.90
2023-01-04T06:33:29.407Z,2.17
2023-01-04T06:34:32.054Z,2.00
2023-01-04T06:35:35.958Z,2.10
2023-01-04T06:36:37.810Z,2.15
2023-01-04T06:37:40.711Z,2.00
2023-01-04T06:38:42.225Z,2.00
2023-01-04T06:39:44.722Z,2.13
2023-01-04T06:40:47.531Z,2.47
2023-01-04T06:41:50.137Z,2.00
2023-01-04T06:42:51.654Z,2.53
2023-01-04T06:43:54.284Z,1.92
2023-01-04T06:44:55.807Z,2.10
2023-01-04T06:45:58.508Z,2.35
2023-01-04T06:47:00.132Z,2.38
2023-01-04T06:48:08.712Z,2.70
2023-01-04T06:49:10.712Z,2.60
2023-01-04T06:50:13.276Z,2.67
2023-01-04T06:51:14.845Z,3.03
2023-01-04T06:52:17.304Z,3.05
2023-01-04T06:53:18.860Z,2.85
2023-01-04T06:54:21.342Z,3.13
2023-01-04T06:55:22.852Z,3.13
2023-01-04T06:56:26.705Z,2.83
2023-01-04T06:57:28.221Z,3.60
2023-01-04T06:58:30.679Z,3.35
2023-01-04T06:59:32.172Z,2.97
2023-01-04T07:00:34.832Z,3.15
2023-01-04T07:01:36.561Z,3.22
2023-01-04T07:02:39.361Z,2.97
2023-01-04T07:04:01.737Z,3.05
2023-01-04T07:05:03.720Z,2.95
2023-01-04T07:06:07.816Z,3.42
2023-01-04T07:07:09.830Z,2.97
2023-01-04T07:08:13.428Z,3.35
2023-01-04T07:09:15.016Z,3.50
2023-01-04T07:10:17.529Z,3.58
2023-01-04T07:11:19.033Z,3.72
2023-01-04T07:12:22.807Z,3.38
2023-01-04T07:13:24.630Z,3.55
2023-01-04T07:14:27.142Z,3.08
2023-01-04T07:15:38.423Z,3.60
2023-01-04T07:16:42.966Z,3.03
2023-01-04T07:17:47.157Z,3.25
2023-01-04T07:18:49.695Z,3.05
2023-01-04T07:19:51.206Z,2.88
2023-01-04T07:20:53.732Z,3.45
2023-01-04T07:21:55.851Z,3.03
2023-01-04T07:22:58.367Z,3.28
2023-01-04T07:24:00.802Z,3.00
2023-01-04T07:25:03.321Z,2.63
2023-01-04T07:26:06.284Z,3.20
2023-01-04T07:27:07.807Z,3.50
2023-01-04T07:28:11.789Z,3.58
2023-01-04T07:29:14.463Z,3.50
2023-01-04T07:30:17.194Z,3.53
2023-01-04T07:31:18.829Z,3.53
2023-01-04T07:32:21.357Z,3.55
2023-01-04T07:33:22.928Z,3.28
2023-01-04T07:34:26.685Z,3.42
2023-01-04T07:35:28.262Z,3.13
2023-01-04T07:36:30.745Z,3.40
2023-01-04T07:37:33.256Z,3.22
2023-01-04T07:38:36.113Z,3.30
2023-01-04T07:39:37.669Z,2.75
2023-01-04T07:40:56.453Z,3.17
2023-01-04T07:41:58.581Z,3.00
2023-01-04T07:43:02.083Z,3.03
2023-01-04T07:44:06.079Z,3.55
2023-01-04T07:45:09.712Z,3.03
2023-01-04T07:46:11.401Z,3.60
2023-01-04T07:47:13.878Z,3.30
2023-01-04T07:48:19.436Z,3.80
2023-01-04T07:49:22.203Z,3.58
2023-01-04T07:50:23.723Z,3.70
2023-01-04T07:51:29.139Z,3.47
2023-01-04T07:52:31.664Z,3.30
2023-01-04T07:53:33.646Z,3.30
2023-01-04T07:54:36.073Z,3.33
2023-01-04T07:55:37.597Z,3.10
2023-01-04T07:56:40.244Z,3.60
2023-01-04T07:57:41.779Z,3.30
2023-01-04T07:58:47.022Z,3.30
2023-01-04T07:59:49.901Z,3.00
2023-01-04T08:00:52.373Z,3.25
2023-01-04T08:01:55.067Z,3.13
2023-01-04T08:02:56.713Z,2.88
2023-01-04T08:03:59.390Z,2.83
2023-01-04T08:05:02.038Z,3.08
2023-01-04T08:06:04.976Z,3.00
2023-01-04T08:07:07.486Z,3.20
2023-01-04T08:08:09.189Z,2.90
2023-01-04T08:09:12.556Z,3.30
2023-01-04T08:10:17.689Z,2.63
2023-01-04T08:11:22.436Z,3.33
2023-01-04T08:12:24.953Z,2.80
2023-01-04T08:13:26.664Z,2.72
2023-01-04T08:14:29.178Z,2.80
2023-01-04T08:15:32.076Z,3.00
2023-01-04T08:16:36.818Z,2.60
2023-01-04T08:17:38.600Z,3.20
2023-01-04T08:18:41.053Z,2.58
2023-01-04T08:19:42.549Z,2.97
2023-01-04T08:20:51.033Z,3.08
2023-01-04T08:22:58.352Z,2.90
2023-01-04T08:24:00.144Z,2.55
2023-01-04T08:25:02.622Z,3.15
2023-01-04T08:26:06.572Z,2.47
2023-01-04T08:27:11.017Z,2.75
2023-01-04T08:28:12.545Z,2.60
2023-01-04T08:29:15.080Z,2.55
2023-01-04T08:30:17.675Z,2.55
2023-01-04T08:31:23.809Z,2.88
2023-01-04T08:32:26.414Z,2.53
2023-01-04T08:33:28.937Z,2.80
2023-01-04T08:34:32.470Z,2.53
2023-01-04T08:35:34.314Z,2.70
2023-01-04T08:36:45.359Z,2.60
2023-01-04T08:37:47.841Z,2.20
2023-01-04T08:39:00.368Z,1.98
2023-01-04T08:40:04.405Z,2.30
2023-01-04T08:41:30.998Z,2.22
2023-01-04T08:42:31.823Z,2.30
2023-01-04T08:43:35.741Z,2.22
2023-01-04T08:44:38.620Z,2.10
2023-01-04T08:45:40.220Z,2.10
2023-01-04T08:46:44.452Z,2.03
2023-01-04T08:47:46.995Z,2.40
2023-01-04T08:48:48.909Z,2.08
2023-01-04T08:49:51.394Z,1.98
2023-01-04T08:50:52.934Z,1.85
2023-01-04T08:51:55.550Z,2.50
2023-01-04T08:52:57.069Z,1.90
2023-01-04T08:53:59.567Z,2.20
2023-01-04T08:55:05.577Z,2.10
2023-01-04T08:56:10.501Z,2.00
2023-01-04T08:57:12.947Z,1.90
2023-01-04T08:58:14.594Z,1.70
2023-01-04T08:59:17.077Z,1.80
2023-01-04T09:00:21.687Z,1.90
2023-01-04T09:01:23.461Z,1.85
2023-01-04T09:02:28.964Z,2.30
2023-01-04T09:03:31.367Z,1.92
2023-01-04T09:04:33.993Z,2.30
2023-01-04T09:05:35.577Z,1.70
2023-01-04T09:06:39.265Z,1.88
2023-01-04T09:07:41.698Z,2.25
2023-01-04T09:08:45.132Z,1.90
2023-01-04T09:09:47.683Z,1.83
2023-01-04T09:10:50.172Z,1.77
2023-01-04T09:11:52.646Z,1.40
2023-01-04T09:12:55.118Z,1.92
2023-01-04T09:14:06.890Z,1.70
2023-01-04T09:15:11.607Z,1.67
2023-01-04T09:16:15.526Z,1.40
2023-01-04T09:17:18.489Z,1.55
2023-01-04T09:18:31.739Z,2.03
2023-01-04T09:19:35.522Z,1.58
2023-01-04T09:20:39.951Z,1.60
2023-01-04T09:21:42.494Z,1.50
2023-01-04T09:22:44.081Z,1.65
2023-01-04T09:23:47.058Z,1.38
2023-01-04T09:24:48.572Z,1.67
2023-01-04T09:25:51.613Z,1.70
2023-01-04T09:26:54.161Z,1.58
2023-01-04T09:27:58.214Z,1.27
2023-01-04T09:29:00.694Z,1.60
2023-01-04T09:30:02.297Z,1.52
2023-01-04T09:31:08.928Z,1.90
2023-01-04T09:32:16.258Z,1.30
2023-01-04T09:33:18.257Z,1.23
2023-01-04T09:34:22.407Z,1.35
2023-01-04T09:35:24.825Z,1.45
2023-01-04T09:36:26.627Z,1.30
2023-01-04T09:37:29.197Z,1.30
2023-01-04T09:38:31.165Z,1.48
2023-01-04T09:39:33.628Z,1.08
2023-01-04T09:40:53.613Z,1.15
2023-01-04T09:41:57.971Z,0.82
2023-01-04T09:43:20.906Z,1.00
2023-01-04T09:45:12.152Z,1.23
2023-01-04T09:46:02.607Z,0.90
2023-01-04T09:47:08.132Z,1.27
2023-01-04T09:48:16.897Z,1.27
2023-01-04T09:49:30.076Z,1.08
2023-01-04T09:50:35.977Z,1.20
2023-01-04T09:51:44.352Z,0.80
2023-01-04T09:52:55.664Z,1.00
2023-01-04T09:54:02.636Z,0.80
2023-01-04T09:55:39.638Z,0.90
2023-01-04T09:56:34.808Z,0.77
2023-01-04T09:57:42.410Z,0.80
2023-01-04T09:58:45.722Z,0.90
2023-01-04T09:59:50.780Z,0.88
2023-01-04T10:00:59.745Z,0.98
2023-01-04T10:02:05.632Z,0.90
2023-01-04T10:03:15.070Z,0.90
2023-01-04T10:04:24.322Z,0.90
2023-01-04T10:05:30.915Z,0.77
2023-01-04T10:06:34.913Z,0.90
2023-01-04T10:07:36.530Z,0.70
2023-01-04T10:08:39.514Z,0.85
2023-01-04T10:09:41.024Z,0.70
2023-01-04T10:10:57.232Z,0.80
2023-01-04T10:12:14.248Z,0.75
2023-01-04T10:13:29.720Z,1.00
2023-01-04T10:14:48.122Z,0.70
2023-01-04T10:15:57.929Z,0.90
2023-01-04T10:17:23.689Z,0.90
2023-01-04T10:21:52.429Z,0.80
2023-01-04T10:23:07.122Z,0.52
2023-01-04T10:24:29.373Z,0.95
2023-01-04T10:25:44.001Z,0.80
2023-01-04T10:26:48.472Z,0.73
2023-01-04T10:28:03.767Z,0.57
2023-01-04T10:29:26.966Z,0.60
2023-01-04T10:30:41.412Z,0.70
2023-01-04T10:31:51.051Z,0.75
2023-01-04T10:33:05.011Z,0.70
2023-01-04T10:34:19.154Z,0.90
2023-01-04T10:35:23.442Z,0.90
2023-01-04T10:36:32.563Z,0.80
2023-01-04T10:37:38.581Z,0.90
2023-01-04T10:38:40.941Z,0.90
2023-01-04T10:39:45.066Z,0.73
2023-01-04T10:40:50.407Z,0.65
2023-01-04T10:41:58.590Z,0.82
2023-01-04T10:43:07.848Z,0.82
2023-01-04T10:44:18.641Z,0.77
2023-01-04T10:46:28.907Z,0.80
2023-01-04T10:47:39.632Z,0.63
2023-01-04T10:48:50.352Z,0.50
2023-01-04T10:49:56.652Z,0.55
2023-01-04T10:51:08.940Z,1.00
2023-01-04T10:52:17.714Z,0.95
2023-01-04T10:53:27.280Z,0.95
2023-01-04T10:54:35.769Z,0.85
2023-01-04T10:56:23.982Z,1.15
2023-01-04T10:57:13.561Z,1.05
2023-01-04T10:58:22.758Z,0.85
2023-01-04T10:59:30.531Z,1.10
2023-01-04T11:00:40.179Z,0.88
2023-01-04T11:01:48.154Z,0.95
2023-01-04T11:02:56.547Z,1.33
2023-01-04T11:04:05.241Z,1.00
2023-01-04T11:05:17.166Z,0.90
2023-01-04T11:06:23.192Z,1.13
2023-01-04T11:07:28.449Z,1.38
2023-01-04T11:08:36.386Z,1.15
2023-01-04T11:09:43.770Z,1.20
2023-01-04T11:10:51.645Z,1.17
2023-01-04T11:11:56.551Z,0.93
2023-01-04T11:12:59.241Z,1.30
2023-01-04T11:14:01.889Z,1.25
2023-01-04T11:15:05.550Z,1.10
2023-01-04T11:16:08.102Z,1.00
2023-01-04T11:17:12.764Z,1.17
2023-01-04T11:18:17.037Z,1.25
2023-01-04T11:19:18.622Z,1.23
2023-01-04T11:20:26.481Z,1.38
2023-01-04T11:21:35.142Z,1.30
2023-01-04T11:22:42.041Z,1.17
2023-01-04T11:23:45.921Z,1.13
2023-01-04T11:25:33.336Z,1.33
2023-01-04T11:26:19.934Z,1.25
2023-01-04T11:27:27.183Z,1.33
2023-01-04T11:28:34.191Z,1.33
2023-01-04T11:29:42.486Z,1.55
2023-01-04T11:30:55.995Z,1.65
2023-01-04T11:32:02.301Z,1.40
2023-01-04T11:33:13.594Z,1.42
2023-01-04T11:34:16.246Z,1.30
2023-01-04T11:35:42.265Z,1.30
2023-01-04T11:36:46.653Z,1.50
2023-01-04T11:37:48.194Z,1.45
2023-01-04T11:38:56.475Z,1.33
2023-01-04T11:40:14.012Z,1.35
2023-01-04T11:41:19.096Z,1.60
2023-01-04T11:42:21.710Z,1.70
2023-01-04T11:43:25.395Z,1.30
2023-01-04T11:44:28.259Z,1.50
2023-01-04T11:45:30.810Z,1.23
2023-01-04T11:46:35.156Z,2.30
2023-01-04T11:47:48.137Z,1.30
2023-01-04T11:48:51.680Z,1.40
2023-01-04T11:49:53.253Z,1.40
2023-01-04T11:50:56.623Z,1.30
2023-01-04T11:52:00.437Z,1.10
2023-01-04T11:53:02.197Z,1.20
2023-01-04T11:54:08.185Z,1.13
2023-01-04T11:55:22.839Z,1.20
2023-01-04T11:56:27.665Z,1.00
2023-01-04T11:57:30.154Z,1.23
2023-01-04T11:58:31.685Z,1.10
2023-01-04T11:59:34.312Z,1.40
2023-01-04T12:00:35.831Z,1.17
2023-01-04T12:01:40.531Z,0.90
2023-01-04T12:03:00.832Z,0.80
2023-01-04T12:04:11.375Z,1.42
2023-01-04T12:05:24.573Z,1.20
2023-01-04T12:06:38.662Z,1.00
2023-01-04T12:07:41.391Z,0.73
2023-01-04T12:08:43.041Z,1.00
2023-01-04T12:09:46.965Z,1.00
2023-01-04T12:10:49.064Z,1.15
2023-01-04T12:11:53.223Z,1.10
2023-01-04T12:12:55.430Z,1.05
2023-01-04T12:14:02.321Z,1.13
2023-01-04T12:15:14.324Z,1.00
2023-01-04T12:16:25.317Z,0.80
2023-01-04T12:17:36.790Z,0.90
2023-01-04T12:18:42.269Z,0.82
2023-01-04T12:19:46.700Z,0.70
2023-01-04T12:20:48.379Z,0.70
2023-01-04T12:21:54.190Z,0.63
2023-01-04T12:22:56.767Z,0.77
2023-01-04T12:23:59.393Z,0.70
2023-01-04T12:25:05.293Z,0.70
2023-01-04T12:26:08.754Z,0.70
2023-01-04T12:27:15.932Z,0.90
2023-01-04T12:28:32.031Z,1.00
2023-01-04T12:29:55.483Z,0.60
2023-01-04T12:31:31.973Z,0.70
2023-01-04T12:32:45.771Z,0.75
2023-01-04T12:33:51.098Z,0.70
2023-01-04T12:34:53.684Z,0.73
2023-01-04T12:36:04.077Z,0.80
2023-01-04T12:37:07.301Z,0.60
2023-01-04T12:38:09.902Z,0.82
2023-01-04T12:39:29.848Z,0.80
2023-01-04T12:40:56.331Z,0.60
2023-01-04T12:42:23.213Z,0.60
2023-01-04T12:43:26.752Z,0.80
2023-01-04T12:45:21.088Z,0.57
2023-01-04T12:47:00.508Z,0.80
2023-01-04T12:48:54.191Z,0.65
2023-01-04T12:50:03.030Z,0.80
2023-01-04T12:51:33.387Z,0.63
2023-01-04T12:53:01.836Z,0.40
2023-01-04T12:54:04.800Z,0.80
2023-01-04T12:55:45.493Z,0.75
2023-01-04T12:57:36.770Z,0.70
2023-01-04T12:59:15.439Z,0.70
2023-01-04T13:00:07.355Z,0.60
2023-01-04T13:01:21.471Z,0.90
2023-01-04T13:02:25.298Z,0.73
2023-01-04T13:03:48.162Z,0.40
2023-01-04T13:05:09.305Z,0.60
2023-01-04T13:06:15.306Z,0.85
2023-01-04T13:07:22.843Z,0.47
2023-01-04T13:08:24.710Z,0.70
2023-01-04T13:09:27.224Z,0.45
2023-01-04T13:10:33.794Z,0.55
2023-01-04T13:11:58.834Z,0.50
2023-01-04T13:13:19.361Z,0.80
2023-01-04T13:14:31.169Z,0.60
2023-01-04T13:15:45.878Z,0.60
2023-01-04T13:16:57.174Z,0.50
2023-01-04T13:17:59.870Z,0.52
2023-01-04T13:19:10.708Z,0.80
2023-01-04T13:21:32.311Z,0.90
2023-01-04T13:22:37.104Z,0.80
2023-01-04T13:23:51.324Z,0.70
2023-01-04T13:24:56.831Z,0.60
2023-01-04T13:26:46.078Z,0.73
2023-01-04T13:28:02.259Z,0.85
2023-01-04T13:29:18.614Z,0.40
2023-01-04T13:30:30.314Z,0.40
2023-01-04T13:31:31.990Z,0.55
2023-01-04T13:32:46.875Z,0.40
2023-01-04T13:33:55.309Z,0.30
2023-01-04T13:35:08.377Z,0.70
2023-01-04T13:36:16.340Z,0.55
2023-01-04T13:37:27.863Z,0.40
2023-01-04T13:38:41.036Z,0.50
2023-01-04T13:39:49.729Z,0.60
2023-01-04T13:40:52.331Z,0.52
2023-01-04T13:41:54.885Z,0.50
2023-01-04T13:43:13.001Z,0.47
2023-01-04T13:44:44.033Z,0.80
2023-01-04T13:46:05.856Z,0.88
2023-01-04T13:47:09.383Z,0.50
2023-01-04T13:48:15.014Z,0.60
2023-01-04T13:49:17.245Z,0.50
2023-01-04T13:50:30.366Z,0.50
2023-01-04T13:51:37.880Z,0.50
2023-01-04T13:52:58.353Z,0.77
2023-01-04T13:54:06.164Z,0.50
2023-01-04T13:55:12.208Z,0.90
2023-01-04T13:56:20.596Z,0.40
2023-01-04T13:57:22.104Z,0.50
2023-01-04T13:58:28.881Z,0.70
2023-01-04T13:59:31.916Z,0.50
2023-01-04T14:00:42.466Z,0.40
2023-01-04T14:03:01.424Z,0.60
2023-01-04T14:04:07.435Z,0.40
2023-01-04T14:05:16.038Z,0.43
2023-01-04T14:06:24.399Z,0.43
2023-01-04T14:07:28.055Z,0.50
2023-01-04T14:08:34.036Z,0.50
2023-01-04T14:09:44.334Z,0.50
2023-01-04T14:10:46.037Z,0.60
2023-01-04T14:12:09.108Z,0.50
2023-01-04T14:13:17.345Z,0.43
2023-01-04T14:14:24.146Z,0.50
2023-01-04T14:15:27.058Z,0.40
2023-01-04T14:16:28.688Z,0.47
2023-01-04T14:17:35.874Z,0.40
2023-01-04T14:18:38.454Z,0.40
2023-01-04T14:19:43.706Z,0.47
2023-01-04T14:20:46.218Z,0.38
2023-01-04T14:21:49.447Z,0.80
2023-01-04T14:22:56.049Z,0.80
2023-01-04T14:24:00.286Z,0.40
2023-01-04T14:25:48.846Z,0.38
2023-01-04T14:26:51.384Z,0.30
2023-01-04T14:27:53.920Z,0.80
2023-01-04T14:28:56.666Z,0.43
2023-01-04T14:29:58.610Z,0.50
2023-01-04T14:31:28.708Z,0.38
2023-01-04T14:32:30.337Z,0.30
2023-01-04T14:33:39.213Z,0.40
2023-01-04T14:34:41.769Z,0.43
2023-01-04T14:35:47.685Z,0.30
2023-01-04T14:37:04.422Z,0.60
2023-01-04T14:38:13.753Z,0.50
2023-01-04T14:39:24.852Z,0.40
2023-01-04T14:40:29.147Z,0.45
2023-01-04T14:41:34.843Z,0.40
2023-01-04T14:42:37.263Z,0.30
2023-01-04T14:43:44.597Z,0.60
2023-01-04T14:44:47.050Z,0.32
2023-01-04T14:45:48.527Z,0.45
2023-01-04T14:46:54.000Z,0.35
2023-01-04T14:47:56.605Z,0.40
2023-01-04T14:49:01.386Z,0.60
2023-01-04T14:50:04.159Z,0.60
2023-01-04T14:51:07.525Z,0.60
2023-01-04T14:52:19.204Z,0.50
2023-01-04T14:53:21.680Z,0.75
2023-01-04T14:54:25.849Z,0.60
2023-01-04T14:55:28.359Z,0.60
2023-01-04T14:56:29.880Z,0.80
2023-01-04T14:57:32.667Z,0.40
2023-01-04T14:58:34.225Z,0.50
2023-01-04T14:59:36.706Z,0.70
2023-01-04T15:00:38.201Z,0.63
2023-01-04T15:01:40.805Z,0.45